sensor_id;sensor_type;location;lat;lon;timestamp;temperature;humidity
71096;DHT22;58753;49.440;11.126;2023-11-19T00:02:25;4.99;95.89
71096;DHT22;58753;49.440;11.126;2023-11-19T00:04:50;4.98;95.91
71096;DHT22;58753;49.440;11.126;2023-11-19T00:07:15;5.00;95.92
71096;DHT22;58753;49.440;11.126;2023-11-19T00:09:46;4.99;95.98
71096;DHT22;58753;49.440;11.126;2023-11-19T00:12:11;5.02;95.95
71096;DHT22;58753;49.440;11.126;2023-11-19T00:14:36;5.00;96.01
71096;DHT22;58753;49.440;11.126;2023-11-19T00:17:04;5.00;96.00
71096;DHT22;58753;49.440;11.126;2023-11-19T00:19:29;5.02;96.02
71096;DHT22;58753;49.440;11.126;2023-11-19T00:21:55;5.04;96.08
71096;DHT22;58753;49.440;11.126;2023-11-19T00:24:22;5.02;96.05
71096;DHT22;58753;49.440;11.126;2023-11-19T00:26:48;5.00;96.07
71096;DHT22;58753;49.440;11.126;2023-11-19T00:29:15;5.05;96.11
71096;DHT22;58753;49.440;11.126;2023-11-19T00:31:40;5.05;96.16
71096;DHT22;58753;49.440;11.126;2023-11-19T00:34:08;5.11;96.15
71096;DHT22;58753;49.440;11.126;2023-11-19T00:36:33;5.11;96.21
71096;DHT22;58753;49.440;11.126;2023-11-19T00:38:58;5.09;96.16
71096;DHT22;58753;49.440;11.126;2023-11-19T00:41:24;5.12;96.21
71096;DHT22;58753;49.440;11.126;2023-11-19T00:43:50;5.13;96.25
71096;DHT22;58753;49.440;11.126;2023-11-19T00:46:18;5.12;96.17
71096;DHT22;58753;49.440;11.126;2023-11-19T00:48:46;5.15;96.22
71096;DHT22;58753;49.440;11.126;2023-11-19T00:51:12;5.16;96.25
71096;DHT22;58753;49.440;11.126;2023-11-19T00:53:40;5.16;96.29
71096;DHT22;58753;49.440;11.126;2023-11-19T00:56:08;5.19;96.30
71096;DHT22;58753;49.440;11.126;2023-11-19T00:58:33;5.18;96.30
71096;DHT22;58753;49.440;11.126;2023-11-19T01:00:58;5.19;96.29
71096;DHT22;58753;49.440;11.126;2023-11-19T01:03:24;5.19;96.33
71096;DHT22;58753;49.440;11.126;2023-11-19T01:05:51;5.22;96.38
71096;DHT22;58753;49.440;11.126;2023-11-19T01:08:17;5.19;96.37
71096;DHT22;58753;49.440;11.126;2023-11-19T01:10:42;5.19;96.36
71096;DHT22;58753;49.440;11.126;2023-11-19T01:13:09;5.22;96.37
71096;DHT22;58753;49.440;11.126;2023-11-19T01:15:39;5.22;96.38
71096;DHT22;58753;49.440;11.126;2023-11-19T01:18:08;5.23;96.38
71096;DHT22;58753;49.440;11.126;2023-11-19T01:20:34;5.28;96.49
71096;DHT22;58753;49.440;11.126;2023-11-19T01:23:00;5.28;96.41
71096;DHT22;58753;49.440;11.126;2023-11-19T01:25:25;5.30;96.42
71096;DHT22;58753;49.440;11.126;2023-11-19T01:27:53;5.32;96.46
71096;DHT22;58753;49.440;11.126;2023-11-19T01:30:25;5.32;96.46
71096;DHT22;58753;49.440;11.126;2023-11-19T01:32:51;5.35;96.47
71096;DHT22;58753;49.440;11.126;2023-11-19T01:35:16;5.35;96.45
71096;DHT22;58753;49.440;11.126;2023-11-19T01:37:44;5.33;96.48
71096;DHT22;58753;49.440;11.126;2023-11-19T01:40:10;5.33;96.51
71096;DHT22;58753;49.440;11.126;2023-11-19T01:42:40;5.33;96.48
71096;DHT22;58753;49.440;11.126;2023-11-19T01:45:06;5.35;96.49
71096;DHT22;58753;49.440;11.126;2023-11-19T01:47:34;5.35;96.56
71096;DHT22;58753;49.440;11.126;2023-11-19T01:50:02;5.35;96.56
71096;DHT22;58753;49.440;11.126;2023-11-19T01:52:32;5.35;96.58
71096;DHT22;58753;49.440;11.126;2023-11-19T01:55:03;5.35;96.60
71096;DHT22;58753;49.440;11.126;2023-11-19T01:57:32;5.36;96.59
71096;DHT22;58753;49.440;11.126;2023-11-19T01:59:59;5.36;96.60
71096;DHT22;58753;49.440;11.126;2023-11-19T02:02:25;5.35;96.62
71096;DHT22;58753;49.440;11.126;2023-11-19T02:04:54;5.39;96.63
71096;DHT22;58753;49.440;11.126;2023-11-19T02:07:20;5.39;96.66
71096;DHT22;58753;49.440;11.126;2023-11-19T02:09:45;5.39;96.66
71096;DHT22;58753;49.440;11.126;2023-11-19T02:12:11;5.39;96.64
71096;DHT22;58753;49.440;11.126;2023-11-19T02:14:40;5.39;96.71
71096;DHT22;58753;49.440;11.126;2023-11-19T02:17:08;5.40;96.75
71096;DHT22;58753;49.440;11.126;2023-11-19T02:19:49;5.42;96.70
71096;DHT22;58753;49.440;11.126;2023-11-19T02:22:15;5.42;96.78
71096;DHT22;58753;49.440;11.126;2023-11-19T02:24:40;5.44;96.75
71096;DHT22;58753;49.440;11.126;2023-11-19T02:27:18;5.46;96.74
71096;DHT22;58753;49.440;11.126;2023-11-19T02:29:47;5.47;96.76
71096;DHT22;58753;49.440;11.126;2023-11-19T02:32:12;5.44;96.78
71096;DHT22;58753;49.440;11.126;2023-11-19T02:34:38;5.50;96.76
71096;DHT22;58753;49.440;11.126;2023-11-19T02:37:04;5.49;96.77
71096;DHT22;58753;49.440;11.126;2023-11-19T02:39:30;5.50;96.81
71096;DHT22;58753;49.440;11.126;2023-11-19T02:41:56;5.50;96.77
71096;DHT22;58753;49.440;11.126;2023-11-19T02:44:21;5.50;96.83
71096;DHT22;58753;49.440;11.126;2023-11-19T02:46:47;5.50;96.82
71096;DHT22;58753;49.440;11.126;2023-11-19T02:49:16;5.53;96.83
71096;DHT22;58753;49.440;11.126;2023-11-19T02:51:41;5.54;96.87
71096;DHT22;58753;49.440;11.126;2023-11-19T02:54:06;5.51;96.83
71096;DHT22;58753;49.440;11.126;2023-11-19T02:56:32;5.56;96.92
71096;DHT22;58753;49.440;11.126;2023-11-19T02:59:01;5.60;96.91
71096;DHT22;58753;49.440;11.126;2023-11-19T03:01:38;5.57;96.87
71096;DHT22;58753;49.440;11.126;2023-11-19T03:04:11;5.57;96.90
71096;DHT22;58753;49.440;11.126;2023-11-19T03:06:37;5.61;96.91
71096;DHT22;58753;49.440;11.126;2023-11-19T03:09:05;5.61;96.90
71096;DHT22;58753;49.440;11.126;2023-11-19T03:11:35;5.63;96.95
71096;DHT22;58753;49.440;11.126;2023-11-19T03:14:03;5.64;96.94
71096;DHT22;58753;49.440;11.126;2023-11-19T03:16:28;5.63;96.99
71096;DHT22;58753;49.440;11.126;2023-11-19T03:18:54;5.69;96.98
71096;DHT22;58753;49.440;11.126;2023-11-19T03:21:28;5.67;96.92
71096;DHT22;58753;49.440;11.126;2023-11-19T03:23:59;5.69;96.99
71096;DHT22;58753;49.440;11.126;2023-11-19T03:26:26;5.69;96.94
71096;DHT22;58753;49.440;11.126;2023-11-19T03:28:52;5.73;96.98
71096;DHT22;58753;49.440;11.126;2023-11-19T03:31:22;5.71;97.02
71096;DHT22;58753;49.440;11.126;2023-11-19T03:33:48;5.71;97.03
71096;DHT22;58753;49.440;11.126;2023-11-19T03:36:15;5.71;97.05
71096;DHT22;58753;49.440;11.126;2023-11-19T03:38:40;5.71;97.05
71096;DHT22;58753;49.440;11.126;2023-11-19T03:41:15;5.74;97.07
71096;DHT22;58753;49.440;11.126;2023-11-19T03:43:43;5.77;97.11
71096;DHT22;58753;49.440;11.126;2023-11-19T03:46:23;5.77;97.12
71096;DHT22;58753;49.440;11.126;2023-11-19T03:48:49;5.80;97.12
71096;DHT22;58753;49.440;11.126;2023-11-19T03:51:16;5.78;97.13
71096;DHT22;58753;49.440;11.126;2023-11-19T03:53:45;5.84;97.15
71096;DHT22;58753;49.440;11.126;2023-11-19T03:56:13;5.83;97.20
71096;DHT22;58753;49.440;11.126;2023-11-19T03:58:39;5.87;97.22
71096;DHT22;58753;49.440;11.126;2023-11-19T04:01:11;5.86;97.25
71096;DHT22;58753;49.440;11.126;2023-11-19T04:03:36;5.89;97.28
71096;DHT22;58753;49.440;11.126;2023-11-19T04:06:04;5.90;97.26
71096;DHT22;58753;49.440;11.126;2023-11-19T04:08:32;5.91;97.27
71096;DHT22;58753;49.440;11.126;2023-11-19T04:10:57;5.94;97.28
71096;DHT22;58753;49.440;11.126;2023-11-19T04:13:25;5.97;97.31
71096;DHT22;58753;49.440;11.126;2023-11-19T04:15:53;5.98;97.21
71096;DHT22;58753;49.440;11.126;2023-11-19T04:18:18;5.98;97.27
71096;DHT22;58753;49.440;11.126;2023-11-19T04:20:46;6.02;97.34
71096;DHT22;58753;49.440;11.126;2023-11-19T04:23:16;6.05;97.28
71096;DHT22;58753;49.440;11.126;2023-11-19T04:25:44;6.08;97.33
71096;DHT22;58753;49.440;11.126;2023-11-19T04:28:09;6.07;97.30
71096;DHT22;58753;49.440;11.126;2023-11-19T04:30:35;6.11;97.27
71096;DHT22;58753;49.440;11.126;2023-11-19T04:33:02;6.14;97.34
71096;DHT22;58753;49.440;11.126;2023-11-19T04:35:30;6.12;97.33
71096;DHT22;58753;49.440;11.126;2023-11-19T04:37:56;6.15;97.36
71096;DHT22;58753;49.440;11.126;2023-11-19T04:40:23;6.20;97.41
71096;DHT22;58753;49.440;11.126;2023-11-19T04:42:48;6.22;97.32
71096;DHT22;58753;49.440;11.126;2023-11-19T04:45:14;6.21;97.31
71096;DHT22;58753;49.440;11.126;2023-11-19T04:47:42;6.24;97.41
71096;DHT22;58753;49.440;11.126;2023-11-19T04:50:10;6.25;97.32
71096;DHT22;58753;49.440;11.126;2023-11-19T04:52:39;6.31;97.30
71096;DHT22;58753;49.440;11.126;2023-11-19T04:55:10;6.29;97.31
71096;DHT22;58753;49.440;11.126;2023-11-19T04:57:37;6.34;97.32
71096;DHT22;58753;49.440;11.126;2023-11-19T05:00:05;6.35;97.30
71096;DHT22;58753;49.440;11.126;2023-11-19T05:02:31;6.35;97.37
71096;DHT22;58753;49.440;11.126;2023-11-19T05:04:56;6.36;97.32
71096;DHT22;58753;49.440;11.126;2023-11-19T05:07:22;6.41;97.35
71096;DHT22;58753;49.440;11.126;2023-11-19T05:09:47;6.41;97.32
71096;DHT22;58753;49.440;11.126;2023-11-19T05:12:15;6.42;97.35
71096;DHT22;58753;49.440;11.126;2023-11-19T05:14:40;6.45;97.28
71096;DHT22;58753;49.440;11.126;2023-11-19T05:17:06;6.46;97.33
71096;DHT22;58753;49.440;11.126;2023-11-19T05:19:33;6.48;97.33
71096;DHT22;58753;49.440;11.126;2023-11-19T05:21:58;6.53;97.38
71096;DHT22;58753;49.440;11.126;2023-11-19T05:24:23;6.53;97.37
71096;DHT22;58753;49.440;11.126;2023-11-19T05:26:49;6.56;97.39
71096;DHT22;58753;49.440;11.126;2023-11-19T05:29:16;6.59;97.39
71096;DHT22;58753;49.440;11.126;2023-11-19T05:31:41;6.59;97.39
71096;DHT22;58753;49.440;11.126;2023-11-19T05:34:06;6.59;97.43
71096;DHT22;58753;49.440;11.126;2023-11-19T05:36:34;6.61;97.41
71096;DHT22;58753;49.440;11.126;2023-11-19T05:39:00;6.62;97.38
71096;DHT22;58753;49.440;11.126;2023-11-19T05:41:28;6.65;97.45
71096;DHT22;58753;49.440;11.126;2023-11-19T05:43:54;6.66;97.47
71096;DHT22;58753;49.440;11.126;2023-11-19T05:46:19;6.69;97.50
71096;DHT22;58753;49.440;11.126;2023-11-19T05:48:45;6.72;97.48
71096;DHT22;58753;49.440;11.126;2023-11-19T05:51:12;6.76;97.57
71096;DHT22;58753;49.440;11.126;2023-11-19T05:53:45;6.80;97.51
71096;DHT22;58753;49.440;11.126;2023-11-19T05:56:15;6.83;97.50
71096;DHT22;58753;49.440;11.126;2023-11-19T05:58:41;6.85;97.53
71096;DHT22;58753;49.440;11.126;2023-11-19T06:01:06;6.85;97.49
71096;DHT22;58753;49.440;11.126;2023-11-19T06:03:32;6.90;97.56
71096;DHT22;58753;49.440;11.126;2023-11-19T06:05:58;6.93;97.53
71096;DHT22;58753;49.440;11.126;2023-11-19T06:08:23;6.95;97.59
71096;DHT22;58753;49.440;11.126;2023-11-19T06:10:49;7.01;97.67
71096;DHT22;58753;49.440;11.126;2023-11-19T06:13:19;7.06;97.63
71096;DHT22;58753;49.440;11.126;2023-11-19T06:15:44;7.13;97.65
71096;DHT22;58753;49.440;11.126;2023-11-19T06:18:14;7.17;97.59
71096;DHT22;58753;49.440;11.126;2023-11-19T06:20:45;7.21;97.65
71096;DHT22;58753;49.440;11.126;2023-11-19T06:23:10;7.26;97.66
71096;DHT22;58753;49.440;11.126;2023-11-19T06:25:38;7.31;97.64
71096;DHT22;58753;49.440;11.126;2023-11-19T06:28:03;7.31;97.63
71096;DHT22;58753;49.440;11.126;2023-11-19T06:30:31;7.37;97.71
71096;DHT22;58753;49.440;11.126;2023-11-19T06:32:58;7.43;97.65
71096;DHT22;58753;49.440;11.126;2023-11-19T06:35:28;7.46;97.63
71096;DHT22;58753;49.440;11.126;2023-11-19T06:38:01;7.51;97.67
71096;DHT22;58753;49.440;11.126;2023-11-19T06:40:29;7.55;97.73
71096;DHT22;58753;49.440;11.126;2023-11-19T06:42:55;7.62;97.70
71096;DHT22;58753;49.440;11.126;2023-11-19T06:45:21;7.68;97.79
71096;DHT22;58753;49.440;11.126;2023-11-19T06:47:47;7.68;97.63
71096;DHT22;58753;49.440;11.126;2023-11-19T06:50:15;7.71;97.71
71096;DHT22;58753;49.440;11.126;2023-11-19T06:52:41;7.78;97.70
71096;DHT22;58753;49.440;11.126;2023-11-19T06:55:07;7.83;97.92
71096;DHT22;58753;49.440;11.126;2023-11-19T06:57:34;7.88;97.76
71096;DHT22;58753;49.440;11.126;2023-11-19T07:00:02;7.91;97.80
71096;DHT22;58753;49.440;11.126;2023-11-19T07:02:30;7.95;97.85
71096;DHT22;58753;49.440;11.126;2023-11-19T07:04:56;8.05;97.89
71096;DHT22;58753;49.440;11.126;2023-11-19T07:07:21;8.09;97.91
71096;DHT22;58753;49.440;11.126;2023-11-19T07:09:46;8.10;97.72
71096;DHT22;58753;49.440;11.126;2023-11-19T07:12:13;8.13;97.73
71096;DHT22;58753;49.440;11.126;2023-11-19T07:14:39;8.16;97.78
71096;DHT22;58753;49.440;11.126;2023-11-19T07:17:05;8.21;97.76
71096;DHT22;58753;49.440;11.126;2023-11-19T07:19:33;8.21;97.75
71096;DHT22;58753;49.440;11.126;2023-11-19T07:22:00;8.26;97.82
71096;DHT22;58753;49.440;11.126;2023-11-19T07:24:25;8.30;97.84
71096;DHT22;58753;49.440;11.126;2023-11-19T07:26:53;8.34;97.82
71096;DHT22;58753;49.440;11.126;2023-11-19T07:29:19;8.37;97.79
71096;DHT22;58753;49.440;11.126;2023-11-19T07:31:48;8.46;97.98
71096;DHT22;58753;49.440;11.126;2023-11-19T07:34:14;8.54;97.98
71096;DHT22;58753;49.440;11.126;2023-11-19T07:36:41;8.59;97.86
71096;DHT22;58753;49.440;11.126;2023-11-19T07:39:07;8.59;97.77
71096;DHT22;58753;49.440;11.126;2023-11-19T07:41:35;8.61;97.80
71096;DHT22;58753;49.440;11.126;2023-11-19T07:44:03;8.67;97.78
71096;DHT22;58753;49.440;11.126;2023-11-19T07:46:29;8.67;97.79
71096;DHT22;58753;49.440;11.126;2023-11-19T07:48:57;8.70;97.81
71096;DHT22;58753;49.440;11.126;2023-11-19T07:51:22;8.76;97.79
71096;DHT22;58753;49.440;11.126;2023-11-19T07:53:47;8.80;97.79
71096;DHT22;58753;49.440;11.126;2023-11-19T07:56:13;8.85;97.85
71096;DHT22;58753;49.440;11.126;2023-11-19T07:58:43;8.88;97.79
71096;DHT22;58753;49.440;11.126;2023-11-19T08:01:13;8.87;97.72
71096;DHT22;58753;49.440;11.126;2023-11-19T08:03:40;8.89;97.76
71096;DHT22;58753;49.440;11.126;2023-11-19T08:06:08;8.89;97.72
71096;DHT22;58753;49.440;11.126;2023-11-19T08:08:33;8.91;97.80
71096;DHT22;58753;49.440;11.126;2023-11-19T08:11:00;8.96;97.70
71096;DHT22;58753;49.440;11.126;2023-11-19T08:13:25;8.98;97.81
71096;DHT22;58753;49.440;11.126;2023-11-19T08:15:53;9.03;97.81
71096;DHT22;58753;49.440;11.126;2023-11-19T08:18:21;9.08;97.91
71096;DHT22;58753;49.440;11.126;2023-11-19T08:20:46;9.15;97.88
71096;DHT22;58753;49.440;11.126;2023-11-19T08:23:17;9.19;97.82
71096;DHT22;58753;49.440;11.126;2023-11-19T08:25:48;9.18;97.70
71096;DHT22;58753;49.440;11.126;2023-11-19T08:28:13;9.18;97.66
71096;DHT22;58753;49.440;11.126;2023-11-19T08:30:39;9.21;97.72
71096;DHT22;58753;49.440;11.126;2023-11-19T08:33:06;9.24;97.79
71096;DHT22;58753;49.440;11.126;2023-11-19T08:35:32;9.29;97.98
71096;DHT22;58753;49.440;11.126;2023-11-19T08:38:02;9.40;98.21
71096;DHT22;58753;49.440;11.126;2023-11-19T08:40:28;9.59;98.32
71096;DHT22;58753;49.440;11.126;2023-11-19T08:42:55;9.68;98.19
71096;DHT22;58753;49.440;11.126;2023-11-19T08:45:23;9.79;98.10
71096;DHT22;58753;49.440;11.126;2023-11-19T08:47:48;9.85;98.04
71096;DHT22;58753;49.440;11.126;2023-11-19T08:50:14;9.92;98.02
71096;DHT22;58753;49.440;11.126;2023-11-19T08:52:39;9.96;98.13
71096;DHT22;58753;49.440;11.126;2023-11-19T08:55:05;10.06;98.12
71096;DHT22;58753;49.440;11.126;2023-11-19T08:57:31;10.12;97.92
71096;DHT22;58753;49.440;11.126;2023-11-19T09:00:01;10.21;97.96
71096;DHT22;58753;49.440;11.126;2023-11-19T09:02:29;10.37;98.10
71096;DHT22;58753;49.440;11.126;2023-11-19T09:04:55;10.45;97.90
71096;DHT22;58753;49.440;11.126;2023-11-19T09:07:20;10.57;97.99
71096;DHT22;58753;49.440;11.126;2023-11-19T09:09:49;10.64;97.85
71096;DHT22;58753;49.440;11.126;2023-11-19T09:12:14;10.71;97.79
71096;DHT22;58753;49.440;11.126;2023-11-19T09:14:39;10.78;97.83
71096;DHT22;58753;49.440;11.126;2023-11-19T09:17:07;10.88;97.84
71096;DHT22;58753;49.440;11.126;2023-11-19T09:19:33;10.96;97.71
71096;DHT22;58753;49.440;11.126;2023-11-19T09:21:59;11.02;97.67
71096;DHT22;58753;49.440;11.126;2023-11-19T09:24:27;11.12;97.66
71096;DHT22;58753;49.440;11.126;2023-11-19T09:26:55;11.16;97.49
71096;DHT22;58753;49.440;11.126;2023-11-19T09:29:21;11.20;97.38
71096;DHT22;58753;49.440;11.126;2023-11-19T09:31:49;11.20;97.34
71096;DHT22;58753;49.440;11.126;2023-11-19T09:34:14;11.28;97.46
71096;DHT22;58753;49.440;11.126;2023-11-19T09:36:42;11.33;97.13
71096;DHT22;58753;49.440;11.126;2023-11-19T09:39:10;11.42;97.17
71096;DHT22;58753;49.440;11.126;2023-11-19T09:41:35;11.53;96.91
71096;DHT22;58753;49.440;11.126;2023-11-19T09:44:04;11.46;96.65
71096;DHT22;58753;49.440;11.126;2023-11-19T09:46:29;11.49;96.59
71096;DHT22;58753;49.440;11.126;2023-11-19T09:48:55;11.49;96.49
71096;DHT22;58753;49.440;11.126;2023-11-19T09:51:23;11.49;96.39
71096;DHT22;58753;49.440;11.126;2023-11-19T09:53:51;11.56;96.27
71096;DHT22;58753;49.440;11.126;2023-11-19T09:56:19;11.62;96.08
71096;DHT22;58753;49.440;11.126;2023-11-19T09:58:45;11.57;95.93
71096;DHT22;58753;49.440;11.126;2023-11-19T10:01:10;11.62;95.80
71096;DHT22;58753;49.440;11.126;2023-11-19T10:03:37;11.69;95.78
71096;DHT22;58753;49.440;11.126;2023-11-19T10:06:08;11.69;95.63
71096;DHT22;58753;49.440;11.126;2023-11-19T10:08:36;11.67;95.65
71096;DHT22;58753;49.440;11.126;2023-11-19T10:11:02;11.69;95.32
71096;DHT22;58753;49.440;11.126;2023-11-19T10:13:28;11.73;95.08
71096;DHT22;58753;49.440;11.126;2023-11-19T10:15:56;11.74;95.05
71096;DHT22;58753;49.440;11.126;2023-11-19T10:18:26;11.81;94.92
71096;DHT22;58753;49.440;11.126;2023-11-19T10:20:54;11.89;94.90
71096;DHT22;58753;49.440;11.126;2023-11-19T10:23:20;11.91;94.74
71096;DHT22;58753;49.440;11.126;2023-11-19T10:25:45;11.91;94.41
71096;DHT22;58753;49.440;11.126;2023-11-19T10:28:15;11.86;94.41
71096;DHT22;58753;49.440;11.126;2023-11-19T10:30:44;11.74;94.33
71096;DHT22;58753;49.440;11.126;2023-11-19T10:33:13;11.70;94.38
71096;DHT22;58753;49.440;11.126;2023-11-19T10:38:21;11.73;94.28
71096;DHT22;58753;49.440;11.126;2023-11-19T10:40:49;11.73;94.21
71096;DHT22;58753;49.440;11.126;2023-11-19T10:43:22;11.69;94.23
71096;DHT22;58753;49.440;11.126;2023-11-19T10:45:48;11.59;94.27
71096;DHT22;58753;49.440;11.126;2023-11-19T10:48:14;11.52;94.50
71096;DHT22;58753;49.440;11.126;2023-11-19T10:50:41;11.63;94.70
71096;DHT22;58753;49.440;11.126;2023-11-19T10:53:09;11.83;94.81
71096;DHT22;58753;49.440;11.126;2023-11-19T10:55:36;12.02;94.72
71096;DHT22;58753;49.440;11.126;2023-11-19T10:58:09;12.10;94.35
71096;DHT22;58753;49.440;11.126;2023-11-19T11:00:47;12.25;94.23
71096;DHT22;58753;49.440;11.126;2023-11-19T11:03:17;12.55;94.54
71096;DHT22;58753;49.440;11.126;2023-11-19T11:05:46;12.85;93.32
71096;DHT22;58753;49.440;11.126;2023-11-19T11:08:12;12.69;92.83
71096;DHT22;58753;49.440;11.126;2023-11-19T11:10:43;12.68;93.29
71096;DHT22;58753;49.440;11.126;2023-11-19T11:13:13;12.44;93.06
71096;DHT22;58753;49.440;11.126;2023-11-19T11:15:39;12.25;93.12
71096;DHT22;58753;49.440;11.126;2023-11-19T11:18:10;12.14;93.28
71096;DHT22;58753;49.440;11.126;2023-11-19T11:20:35;12.00;93.33
71096;DHT22;58753;49.440;11.126;2023-11-19T11:26:04;12.07;93.69
71096;DHT22;58753;49.440;11.126;2023-11-19T11:28:40;12.11;93.34
71096;DHT22;58753;49.440;11.126;2023-11-19T11:31:34;12.11;93.31
71096;DHT22;58753;49.440;11.126;2023-11-19T11:39:39;12.18;92.73
71096;DHT22;58753;49.440;11.126;2023-11-19T11:45:13;12.71;92.12
71096;DHT22;58753;49.440;11.126;2023-11-19T11:50:24;12.91;91.46
71096;DHT22;58753;49.440;11.126;2023-11-19T11:57:55;12.48;90.59
71096;DHT22;58753;49.440;11.126;2023-11-19T12:00:27;12.40;90.73
71096;DHT22;58753;49.440;11.126;2023-11-19T12:02:57;12.38;90.72
71096;DHT22;58753;49.440;11.126;2023-11-19T12:05:23;12.38;90.65
71096;DHT22;58753;49.440;11.126;2023-11-19T12:08:04;12.34;90.26
71096;DHT22;58753;49.440;11.126;2023-11-19T12:10:36;12.40;90.13
71096;DHT22;58753;49.440;11.126;2023-11-19T12:13:05;12.40;89.83
71096;DHT22;58753;49.440;11.126;2023-11-19T12:15:32;12.40;89.55
71096;DHT22;58753;49.440;11.126;2023-11-19T12:18:00;12.42;89.55
71096;DHT22;58753;49.440;11.126;2023-11-19T12:20:26;12.45;89.15
71096;DHT22;58753;49.440;11.126;2023-11-19T12:22:53;12.42;89.07
71096;DHT22;58753;49.440;11.126;2023-11-19T12:25:23;12.46;88.92
71096;DHT22;58753;49.440;11.126;2023-11-19T12:27:53;12.58;88.72
71096;DHT22;58753;49.440;11.126;2023-11-19T12:30:23;12.79;88.50
71096;DHT22;58753;49.440;11.126;2023-11-19T12:32:52;12.95;87.49
71096;DHT22;58753;49.440;11.126;2023-11-19T12:35:26;14.01;87.22
71096;DHT22;58753;49.440;11.126;2023-11-19T12:37:52;14.00;84.00
71096;DHT22;58753;49.440;11.126;2023-11-19T12:40:24;13.85;83.58
71096;DHT22;58753;49.440;11.126;2023-11-19T12:42:54;14.01;83.81
71096;DHT22;58753;49.440;11.126;2023-11-19T12:45:20;13.92;83.09
71096;DHT22;58753;49.440;11.126;2023-11-19T12:47:47;14.12;83.18
71096;DHT22;58753;49.440;11.126;2023-11-19T12:50:15;14.22;81.94
71096;DHT22;58753;49.440;11.126;2023-11-19T12:52:58;14.14;80.98
71096;DHT22;58753;49.440;11.126;2023-11-19T12:55:25;14.14;80.67
71096;DHT22;58753;49.440;11.126;2023-11-19T12:57:54;14.02;80.41
71096;DHT22;58753;49.440;11.126;2023-11-19T13:00:25;14.05;80.26
71096;DHT22;58753;49.440;11.126;2023-11-19T13:02:51;14.01;79.76
71096;DHT22;58753;49.440;11.126;2023-11-19T13:08:06;13.97;79.46
71096;DHT22;58753;49.440;11.126;2023-11-19T13:10:52;13.92;78.90
71096;DHT22;58753;49.440;11.126;2023-11-19T13:13:23;13.92;78.82
71096;DHT22;58753;49.440;11.126;2023-11-19T13:15:51;13.85;78.76
71096;DHT22;58753;49.440;11.126;2023-11-19T13:18:19;13.94;78.55
71096;DHT22;58753;49.440;11.126;2023-11-19T13:20:46;14.12;76.87
71096;DHT22;58753;49.440;11.126;2023-11-19T13:23:12;14.22;77.57
71096;DHT22;58753;49.440;11.126;2023-11-19T13:25:39;14.22;76.71
71096;DHT22;58753;49.440;11.126;2023-11-19T13:28:04;14.15;76.16
71096;DHT22;58753;49.440;11.126;2023-11-19T13:30:31;14.04;75.35
71096;DHT22;58753;49.440;11.126;2023-11-19T13:32:56;14.01;75.39
71096;DHT22;58753;49.440;11.126;2023-11-19T13:35:22;14.21;76.05
71096;DHT22;58753;49.440;11.126;2023-11-19T13:37:50;14.29;75.00
71096;DHT22;58753;49.440;11.126;2023-11-19T13:40:16;14.42;76.60
71096;DHT22;58753;49.440;11.126;2023-11-19T13:42:45;14.48;75.80
71096;DHT22;58753;49.440;11.126;2023-11-19T13:45:11;14.53;74.97
71096;DHT22;58753;49.440;11.126;2023-11-19T13:47:42;14.55;75.46
71096;DHT22;58753;49.440;11.126;2023-11-19T13:50:13;14.53;75.02
71096;DHT22;58753;49.440;11.126;2023-11-19T13:52:40;14.45;75.44
71096;DHT22;58753;49.440;11.126;2023-11-19T13:55:08;14.29;75.55
71096;DHT22;58753;49.440;11.126;2023-11-19T13:57:37;14.24;75.80
71096;DHT22;58753;49.440;11.126;2023-11-19T14:00:03;14.04;75.29
71096;DHT22;58753;49.440;11.126;2023-11-19T14:02:36;14.02;75.30
71096;DHT22;58753;49.440;11.126;2023-11-19T14:05:01;14.15;75.91
71096;DHT22;58753;49.440;11.126;2023-11-19T14:07:27;14.08;76.03
71096;DHT22;58753;49.440;11.126;2023-11-19T14:09:53;14.01;76.14
71096;DHT22;58753;49.440;11.126;2023-11-19T14:12:18;13.85;75.48
71096;DHT22;58753;49.440;11.126;2023-11-19T14:14:46;13.71;75.21
71096;DHT22;58753;49.440;11.126;2023-11-19T14:17:12;13.63;75.89
71096;DHT22;58753;49.440;11.126;2023-11-19T14:19:41;13.68;76.37
71096;DHT22;58753;49.440;11.126;2023-11-19T14:22:06;13.60;76.15
71096;DHT22;58753;49.440;11.126;2023-11-19T14:24:32;13.61;75.70
71096;DHT22;58753;49.440;11.126;2023-11-19T14:27:00;13.56;76.05
71096;DHT22;58753;49.440;11.126;2023-11-19T14:29:26;13.53;75.84
71096;DHT22;58753;49.440;11.126;2023-11-19T14:31:52;13.47;75.31
71096;DHT22;58753;49.440;11.126;2023-11-19T14:34:19;13.43;76.27
71096;DHT22;58753;49.440;11.126;2023-11-19T14:36:45;13.46;76.28
71096;DHT22;58753;49.440;11.126;2023-11-19T14:39:10;13.46;75.71
71096;DHT22;58753;49.440;11.126;2023-11-19T14:41:38;13.56;76.87
71096;DHT22;58753;49.440;11.126;2023-11-19T14:44:06;13.42;74.88
71096;DHT22;58753;49.440;11.126;2023-11-19T14:46:31;13.32;74.74
71096;DHT22;58753;49.440;11.126;2023-11-19T14:48:57;13.20;75.46
71096;DHT22;58753;49.440;11.126;2023-11-19T14:51:22;13.30;76.31
71096;DHT22;58753;49.440;11.126;2023-11-19T14:53:48;13.24;75.30
71096;DHT22;58753;49.440;11.126;2023-11-19T14:56:13;13.30;75.55
71096;DHT22;58753;49.440;11.126;2023-11-19T14:58:39;13.36;74.67
71096;DHT22;58753;49.440;11.126;2023-11-19T15:01:05;13.37;74.38
71096;DHT22;58753;49.440;11.126;2023-11-19T15:03:30;13.44;76.04
71096;DHT22;58753;49.440;11.126;2023-11-19T15:05:58;13.42;74.82
71096;DHT22;58753;49.440;11.126;2023-11-19T15:08:25;13.37;75.16
71096;DHT22;58753;49.440;11.126;2023-11-19T15:10:52;13.20;74.27
71096;DHT22;58753;49.440;11.126;2023-11-19T15:13:18;13.15;74.70
71096;DHT22;58753;49.440;11.126;2023-11-19T15:15:45;13.06;74.98
71096;DHT22;58753;49.440;11.126;2023-11-19T15:18:11;13.02;75.88
71096;DHT22;58753;49.440;11.126;2023-11-19T15:20:38;12.89;75.06
71096;DHT22;58753;49.440;11.126;2023-11-19T15:23:04;12.81;75.25
71096;DHT22;58753;49.440;11.126;2023-11-19T15:25:29;12.69;75.45
71096;DHT22;58753;49.440;11.126;2023-11-19T15:27:57;12.69;76.32
71096;DHT22;58753;49.440;11.126;2023-11-19T15:30:22;12.54;76.15
71096;DHT22;58753;49.440;11.126;2023-11-19T15:32:51;12.52;77.35
71096;DHT22;58753;49.440;11.126;2023-11-19T15:35:16;12.55;77.09
71096;DHT22;58753;49.440;11.126;2023-11-19T15:37:44;12.54;77.70
71096;DHT22;58753;49.440;11.126;2023-11-19T15:40:10;12.51;77.27
71096;DHT22;58753;49.440;11.126;2023-11-19T15:42:37;12.52;77.46
71096;DHT22;58753;49.440;11.126;2023-11-19T15:45:06;12.37;76.89
71096;DHT22;58753;49.440;11.126;2023-11-19T15:47:35;12.27;77.52
71096;DHT22;58753;49.440;11.126;2023-11-19T15:50:05;12.21;77.78
71096;DHT22;58753;49.440;11.126;2023-11-19T15:52:30;12.10;77.92